createdAt,value
2022-11-08T00:01:35.725Z,7.33
2022-11-08T00:04:22.575Z,6.53
2022-11-08T00:07:30.005Z,9.07
2022-11-08T00:10:34.853Z,7.47
2022-11-08T00:13:39.873Z,6.17
2022-11-08T00:16:27.374Z,6.67
2022-11-08T00:19:13.843Z,7.40
2022-11-08T00:22:00.148Z,5.30
2022-11-08T00:24:47.067Z,8.73
2022-11-08T00:27:33.718Z,7.20
2022-11-08T00:30:19.986Z,7.97
2022-11-08T00:33:06.164Z,6.60
2022-11-08T00:35:52.536Z,6.80
2022-11-08T00:38:43.611Z,6.57
2022-11-08T00:41:29.810Z,6.60
2022-11-08T00:44:16.185Z,7.60
2022-11-08T00:47:02.652Z,6.13
2022-11-08T00:49:49.247Z,6.73
2022-11-08T00:52:35.624Z,5.97
2022-11-08T00:55:22.105Z,7.83
2022-11-08T00:58:08.628Z,6.00
2022-11-08T01:00:55.818Z,7.20
2022-11-08T01:03:42.740Z,7.70
2022-11-08T01:06:29.052Z,5.00
2022-11-08T01:09:15.287Z,7.97
2022-11-08T01:12:01.500Z,6.40
2022-11-08T01:14:47.922Z,7.67
2022-11-08T01:17:34.443Z,10.20
2022-11-08T01:20:20.676Z,5.00
2022-11-08T01:23:07.829Z,8.97
2022-11-08T01:25:54.277Z,6.90
2022-11-08T01:28:40.901Z,8.40
2022-11-08T01:31:30.034Z,7.70
2022-11-08T01:34:15.989Z,7.60
2022-11-08T01:37:02.381Z,9.70
2022-11-08T01:39:48.908Z,9.07
2022-11-08T01:42:35.339Z,5.43
2022-11-08T01:45:59.417Z,5.33
2022-11-08T01:48:57.885Z,7.60
2022-11-08T01:52:08.493Z,7.17
2022-11-08T01:54:59.012Z,6.20
2022-11-08T01:57:48.323Z,6.47
2022-11-08T02:00:37.354Z,7.27
2022-11-08T02:03:23.753Z,5.60
2022-11-08T02:06:11.526Z,8.70
2022-11-08T02:09:02.594Z,6.70
2022-11-08T02:11:50.191Z,6.60
2022-11-08T02:14:37.901Z,7.47
2022-11-08T02:17:24.259Z,7.87
2022-11-08T02:20:10.999Z,8.03
2022-11-08T02:23:05.220Z,7.47
2022-11-08T02:25:51.812Z,7.27
2022-11-08T02:28:46.449Z,6.63
2022-11-08T02:31:33.049Z,46.10
2022-11-08T02:34:42.549Z,19.13
2022-11-08T02:37:28.866Z,12.77
2022-11-08T02:40:15.137Z,6.77
2022-11-08T02:43:01.208Z,9.33
2022-11-08T02:45:48.612Z,11.00
2022-11-08T02:48:34.936Z,7.40
2022-11-08T02:51:21.059Z,6.67
2022-11-08T02:54:07.568Z,8.47
2022-11-08T02:56:53.869Z,8.30
2022-11-08T02:59:40.252Z,8.07
2022-11-08T03:02:26.563Z,7.03
2022-11-08T03:05:12.970Z,6.57
2022-11-08T03:07:59.301Z,6.77
2022-11-08T03:10:45.632Z,8.07
2022-11-08T03:13:32.168Z,6.87
2022-11-08T03:16:18.309Z,7.83
2022-11-08T03:19:04.698Z,7.80
2022-11-08T03:21:50.923Z,6.93
2022-11-08T03:24:37.283Z,9.40
2022-11-08T03:27:23.967Z,5.23
2022-11-08T03:30:10.280Z,9.13
2022-11-08T03:32:56.410Z,19.93
2022-11-08T03:35:43.301Z,8.43
2022-11-08T03:38:29.661Z,8.80
2022-11-08T03:41:16.100Z,11.47
2022-11-08T03:44:02.799Z,8.50
2022-11-08T03:46:48.973Z,6.57
2022-11-08T03:49:35.617Z,8.77
2022-11-08T03:52:21.782Z,6.53
2022-11-08T03:55:10.426Z,12.43
2022-11-08T03:57:56.937Z,7.03
2022-11-08T04:00:43.198Z,7.17
2022-11-08T04:03:29.590Z,8.07
2022-11-08T04:06:16.073Z,7.03
2022-11-08T04:09:02.557Z,9.83
2022-11-08T04:12:07.402Z,12.07
2022-11-08T04:15:12.236Z,11.37
2022-11-08T04:18:18.581Z,8.13
2022-11-08T04:21:21.512Z,7.23
2022-11-08T04:24:07.987Z,9.57
2022-11-08T04:26:54.074Z,9.10
2022-11-08T04:29:40.291Z,8.87
2022-11-08T04:32:26.689Z,9.13
2022-11-08T04:35:13.173Z,9.60
2022-11-08T04:38:01.476Z,9.30
2022-11-08T04:40:48.112Z,9.63
2022-11-08T04:43:34.837Z,8.03
2022-11-08T04:46:24.327Z,8.50
2022-11-08T04:49:10.769Z,8.20
2022-11-08T04:51:57.205Z,7.67
2022-11-08T04:54:46.348Z,8.97
2022-11-08T04:57:32.951Z,8.03
2022-11-08T05:00:19.229Z,9.10
2022-11-08T05:03:05.428Z,7.47
2022-11-08T05:05:51.738Z,7.47
2022-11-08T05:08:39.068Z,6.93
2022-11-08T05:11:28.165Z,7.17
2022-11-08T05:14:14.399Z,6.43
2022-11-08T05:17:00.923Z,5.93
2022-11-08T05:20:05.693Z,8.43
2022-11-08T05:23:10.540Z,8.90
2022-11-08T05:25:57.980Z,8.10
2022-11-08T05:28:44.664Z,10.07
2022-11-08T05:31:31.048Z,8.50
2022-11-08T05:34:17.441Z,10.50
2022-11-08T05:37:03.630Z,8.63
2022-11-08T05:39:49.957Z,8.90
2022-11-08T05:42:36.398Z,9.30
2022-11-08T05:45:22.948Z,6.97
2022-11-08T05:48:09.327Z,4.57
2022-11-08T05:50:55.878Z,7.97
2022-11-08T05:53:42.948Z,8.37
2022-11-08T05:56:29.107Z,6.00
2022-11-08T05:59:15.501Z,10.07
2022-11-08T06:02:02.157Z,8.03
2022-11-08T06:04:49.886Z,8.53
2022-11-08T06:07:36.614Z,6.13
2022-11-08T06:10:23.723Z,8.93
2022-11-08T06:13:09.748Z,7.13
2022-11-08T06:15:59.777Z,7.10
2022-11-08T06:18:47.032Z,9.83
2022-11-08T06:21:33.263Z,7.17
2022-11-08T06:24:19.378Z,7.77
2022-11-08T06:27:05.828Z,11.20
2022-11-08T06:29:52.164Z,9.47
2022-11-08T06:32:38.570Z,7.57
2022-11-08T06:35:24.781Z,5.53
2022-11-08T06:38:12.532Z,7.87
2022-11-08T06:41:00.280Z,6.07
2022-11-08T06:43:46.535Z,9.23
2022-11-08T06:46:33.164Z,7.63
2022-11-08T06:49:19.643Z,12.03
2022-11-08T06:52:06.314Z,8.57
2022-11-08T06:54:52.709Z,9.60
2022-11-08T06:57:38.937Z,9.73
2022-11-08T07:00:26.124Z,12.50
2022-11-08T07:03:13.770Z,17.10
2022-11-08T07:06:06.806Z,18.03
2022-11-08T07:08:53.251Z,10.50
2022-11-08T07:11:39.944Z,20.80
2022-11-08T07:14:26.220Z,20.00
2022-11-08T07:17:12.474Z,10.73
2022-11-08T07:19:58.940Z,14.53
2022-11-08T07:22:45.509Z,11.30
2022-11-08T07:25:32.748Z,7.83
2022-11-08T07:28:19.768Z,9.00
2022-11-08T07:31:07.448Z,8.23
2022-11-08T07:33:53.513Z,9.60
2022-11-08T07:36:40.098Z,8.17
2022-11-08T07:39:26.323Z,9.37
2022-11-08T07:42:12.799Z,8.60
2022-11-08T07:45:00.524Z,10.93
2022-11-08T07:47:47.224Z,6.93
2022-11-08T07:50:33.696Z,8.43
2022-11-08T07:53:20.881Z,7.07
2022-11-08T07:56:07.606Z,7.53
2022-11-08T07:58:53.724Z,7.17
2022-11-08T08:01:40.166Z,4.77
2022-11-08T08:04:28.795Z,5.93
2022-11-08T08:07:15.707Z,8.70
2022-11-08T08:10:02.052Z,5.23
2022-11-08T08:12:48.287Z,4.77
2022-11-08T08:15:34.736Z,6.90
2022-11-08T08:18:21.658Z,6.83
2022-11-08T08:21:08.131Z,6.20
2022-11-08T08:23:54.638Z,7.50
2022-11-08T08:26:40.722Z,5.67
2022-11-08T08:29:27.597Z,5.60
2022-11-08T08:32:13.657Z,5.43
2022-11-08T08:35:00.181Z,3.10
2022-11-08T08:37:46.874Z,4.90
2022-11-08T08:40:33.649Z,4.87
2022-11-08T08:43:20.720Z,5.33
2022-11-08T08:46:07.496Z,3.53
2022-11-08T08:48:53.706Z,4.27
2022-11-08T08:51:39.916Z,4.57
2022-11-08T08:54:29.448Z,6.10
2022-11-08T08:57:16.052Z,4.17
2022-11-08T09:03:10.666Z,9.00
2022-11-08T09:06:00.670Z,5.13
2022-11-08T09:08:47.222Z,4.57
2022-11-08T09:11:33.612Z,3.77
2022-11-08T09:14:20.064Z,2.17
2022-11-08T09:17:06.338Z,5.27
2022-11-08T09:19:56.973Z,2.97
2022-11-08T09:22:43.912Z,4.70
2022-11-08T09:25:30.962Z,3.77
2022-11-08T09:28:18.737Z,4.37
2022-11-08T09:31:07.689Z,4.97
2022-11-08T09:33:54.033Z,7.67
2022-11-08T09:36:40.788Z,3.33
2022-11-08T09:39:26.910Z,3.27
2022-11-08T09:42:22.213Z,3.50
2022-11-08T09:45:15.852Z,3.13
2022-11-08T09:48:17.000Z,2.63
2022-11-08T09:51:09.892Z,2.40
2022-11-08T09:53:59.633Z,2.53
2022-11-08T09:56:47.274Z,3.10
2022-11-08T10:00:00.308Z,3.53
2022-11-08T10:02:46.966Z,1.17
2022-11-08T10:05:41.299Z,3.80
2022-11-08T10:08:42.964Z,1.37
2022-11-08T10:11:41.156Z,1.60
2022-11-08T10:14:52.591Z,1.90
2022-11-08T10:17:55.309Z,1.50
2022-11-08T10:21:01.747Z,2.90
2022-11-08T10:24:09.329Z,1.63
2022-11-08T10:26:58.269Z,2.27
2022-11-08T10:29:45.525Z,1.47
2022-11-08T10:32:34.753Z,4.23
2022-11-08T10:35:37.358Z,1.20
2022-11-08T10:38:31.223Z,2.63
2022-11-08T10:41:30.029Z,2.67
2022-11-08T10:44:22.439Z,1.50
2022-11-08T10:47:18.801Z,2.53
2022-11-08T10:50:14.414Z,1.30
2022-11-08T10:53:02.788Z,1.47
2022-11-08T10:55:52.303Z,1.10
2022-11-08T10:58:41.286Z,1.30
2022-11-08T11:01:27.988Z,1.60
2022-11-08T11:04:27.367Z,4.50
2022-11-08T11:07:31.008Z,1.43
2022-11-08T11:10:23.779Z,1.33
2022-11-08T11:13:18.883Z,2.90
2022-11-08T11:16:05.468Z,2.83
2022-11-08T11:18:51.724Z,3.63
2022-11-08T11:21:39.801Z,4.00
2022-11-08T11:24:26.517Z,1.67
2022-11-08T11:27:24.134Z,2.40
2022-11-08T11:30:28.267Z,5.27
2022-11-08T11:33:30.294Z,3.13
2022-11-08T11:36:20.629Z,4.07
2022-11-08T11:39:16.184Z,1.93
2022-11-08T11:42:47.356Z,6.83
2022-11-08T11:45:46.936Z,2.30
2022-11-08T11:48:39.699Z,2.43
2022-11-08T11:51:29.637Z,1.73
2022-11-08T11:54:18.803Z,2.53
2022-11-08T11:57:12.220Z,3.00
2022-11-08T12:00:04.976Z,3.10
2022-11-08T12:03:07.989Z,1.43
2022-11-08T12:06:12.099Z,2.03
2022-11-08T12:09:26.030Z,4.27
2022-11-08T12:12:55.421Z,5.23
2022-11-08T12:16:15.106Z,2.40
2022-11-08T12:19:13.306Z,2.40
2022-11-08T12:22:24.109Z,3.47
2022-11-08T12:25:17.984Z,4.17
2022-11-08T12:28:18.303Z,1.97
2022-11-08T12:31:31.868Z,2.23
2022-11-08T12:34:29.846Z,4.93
2022-11-08T12:37:44.173Z,2.00
2022-11-08T12:40:43.076Z,2.27
2022-11-08T12:43:58.533Z,3.37
2022-11-08T12:47:15.414Z,4.10
2022-11-08T12:50:23.497Z,4.40
2022-11-08T12:53:25.271Z,6.83
2022-11-08T12:56:17.543Z,3.50
2022-11-08T12:59:12.092Z,4.40
2022-11-08T13:02:00.730Z,3.70
2022-11-08T13:04:56.822Z,3.03
2022-11-08T13:07:56.257Z,2.77
2022-11-08T13:11:03.336Z,5.37
2022-11-08T13:13:55.926Z,4.83
2022-11-08T13:16:45.245Z,2.00
2022-11-08T13:20:06.167Z,3.87
2022-11-08T13:23:00.853Z,3.20
2022-11-08T13:25:47.532Z,2.03
2022-11-08T13:28:40.303Z,2.70
2022-11-08T13:31:47.421Z,2.13
2022-11-08T13:34:52.715Z,1.90
2022-11-08T13:37:54.609Z,2.30
2022-11-08T13:41:12.190Z,4.13
2022-11-08T13:43:58.864Z,4.50
2022-11-08T13:46:46.406Z,3.57
2022-11-08T13:49:32.664Z,6.47
2022-11-08T13:53:00.915Z,4.40
2022-11-08T13:55:56.075Z,2.27
2022-11-08T13:58:45.351Z,6.37
2022-11-08T14:01:35.962Z,4.00
2022-11-08T14:04:34.806Z,7.43
2022-11-08T14:07:34.982Z,4.70
2022-11-08T14:10:35.393Z,2.50
2022-11-08T14:13:39.989Z,2.33
2022-11-08T14:16:32.389Z,12.03
2022-11-08T14:19:24.797Z,9.20
2022-11-08T14:22:21.829Z,8.00
2022-11-08T14:25:17.940Z,11.53
2022-11-08T14:28:04.928Z,11.37
2022-11-08T14:30:51.626Z,13.87
2022-11-08T14:33:42.415Z,14.23
2022-11-08T14:36:31.540Z,16.77
2022-11-08T14:39:19.232Z,19.47
2022-11-08T14:42:16.108Z,16.53
2022-11-08T14:45:02.236Z,5.93
2022-11-08T14:47:53.996Z,5.90
2022-11-08T14:50:40.360Z,4.13
2022-11-08T14:53:32.604Z,3.60
2022-11-08T14:56:36.608Z,6.70
2022-11-08T14:59:24.728Z,3.63
2022-11-08T15:02:11.029Z,5.30
2022-11-08T15:04:57.453Z,4.07
2022-11-08T15:07:46.602Z,2.70
2022-11-08T15:10:33.566Z,3.23
2022-11-08T15:13:20.629Z,3.33
2022-11-08T15:16:08.295Z,3.40
2022-11-08T15:18:54.922Z,6.53
2022-11-08T15:21:48.216Z,2.67
2022-11-08T15:24:38.539Z,1.70
2022-11-08T15:27:25.072Z,2.00
2022-11-08T15:30:17.121Z,2.23
2022-11-08T15:33:04.768Z,2.33
2022-11-08T15:35:51.526Z,3.27
2022-11-08T15:38:40.213Z,2.10
2022-11-08T15:41:33.889Z,4.90
2022-11-08T15:44:25.429Z,4.07
2022-11-08T15:47:34.498Z,3.67
2022-11-08T15:50:25.600Z,3.63
2022-11-08T15:53:11.966Z,2.10
2022-11-08T15:56:02.084Z,2.07
2022-11-08T15:58:48.400Z,2.03
2022-11-08T16:01:37.669Z,2.00
2022-11-08T16:04:28.906Z,2.33
2022-11-08T16:07:15.511Z,3.87
2022-11-08T16:10:01.895Z,3.07
2022-11-08T16:12:48.520Z,2.37
2022-11-08T16:15:35.612Z,1.53
2022-11-08T16:18:21.888Z,1.70
2022-11-08T16:21:13.293Z,2.17
2022-11-08T16:23:59.786Z,2.27
2022-11-08T16:26:47.476Z,2.03
2022-11-08T16:29:34.955Z,3.43
2022-11-08T16:32:21.175Z,3.60
2022-11-08T16:35:07.862Z,2.47
2022-11-08T16:37:54.170Z,4.80
2022-11-08T16:40:41.304Z,6.13
2022-11-08T16:43:27.793Z,7.47
2022-11-08T16:46:14.822Z,21.77
2022-11-08T16:49:01.166Z,15.10
2022-11-08T16:51:48.502Z,17.83
2022-11-08T16:54:34.679Z,16.67
2022-11-08T16:57:34.308Z,12.00
2022-11-08T17:00:22.041Z,9.30
2022-11-08T17:03:11.956Z,8.60
2022-11-08T17:05:58.889Z,12.17
2022-11-08T17:08:46.095Z,6.83
2022-11-08T17:11:32.357Z,7.80
2022-11-08T17:14:18.529Z,6.73
2022-11-08T17:17:05.360Z,7.60
2022-11-08T17:19:51.965Z,10.30
2022-11-08T17:22:39.218Z,6.93
2022-11-08T17:25:25.816Z,8.07
2022-11-08T17:28:12.644Z,6.67
2022-11-08T17:31:18.976Z,11.17
2022-11-08T17:34:05.102Z,6.03
2022-11-08T17:36:52.885Z,9.03
2022-11-08T17:39:39.143Z,6.10
2022-11-08T17:42:25.823Z,4.77
2022-11-08T17:45:12.949Z,3.83
2022-11-08T17:47:59.197Z,5.03
2022-11-08T17:50:48.668Z,5.63
2022-11-08T17:53:35.707Z,6.87
2022-11-08T17:56:22.046Z,4.93
2022-11-08T17:59:08.364Z,7.00
2022-11-08T18:01:55.110Z,7.27
2022-11-08T18:04:41.889Z,11.43
2022-11-08T18:07:28.110Z,13.67
2022-11-08T18:10:16.428Z,8.63
2022-11-08T18:13:02.957Z,5.83
2022-11-08T18:15:49.812Z,4.03
2022-11-08T18:18:36.902Z,3.50
2022-11-08T18:21:23.533Z,10.50
2022-11-08T18:24:10.588Z,6.13
2022-11-08T18:26:56.962Z,3.60
2022-11-08T18:29:43.222Z,3.13
2022-11-08T18:32:30.713Z,3.93
2022-11-08T18:35:17.061Z,4.67
2022-11-08T18:38:03.688Z,5.97
2022-11-08T18:40:49.907Z,6.07
2022-11-08T18:43:38.185Z,5.63
2022-11-08T18:46:26.163Z,4.20
2022-11-08T18:49:12.626Z,9.37
2022-11-08T18:51:59.201Z,4.83
2022-11-08T18:54:47.312Z,8.17
2022-11-08T18:57:33.899Z,7.53
2022-11-08T19:00:20.761Z,4.80
2022-11-08T19:03:07.108Z,5.73
2022-11-08T19:05:54.001Z,3.30
2022-11-08T19:08:40.235Z,3.27
2022-11-08T19:11:28.489Z,2.97
2022-11-08T19:14:14.683Z,8.87
2022-11-08T19:17:01.238Z,7.10
2022-11-08T19:19:47.586Z,6.60
2022-11-08T19:22:33.947Z,10.60
2022-11-08T19:25:20.060Z,7.27
2022-11-08T19:28:06.619Z,9.40
2022-11-08T19:30:53.953Z,5.93
2022-11-08T19:33:40.649Z,3.97
2022-11-08T19:36:28.810Z,5.37
2022-11-08T19:39:14.998Z,6.77
2022-11-08T19:42:01.467Z,5.43
2022-11-08T19:44:47.608Z,6.23
2022-11-08T19:47:33.993Z,4.07
2022-11-08T19:50:20.287Z,6.03
2022-11-08T19:53:07.708Z,6.33
2022-11-08T19:56:01.247Z,6.27
2022-11-08T19:58:47.717Z,8.27
2022-11-08T20:01:39.767Z,14.90
2022-11-08T20:04:26.459Z,13.07
2022-11-08T20:07:12.783Z,13.47
2022-11-08T20:09:59.514Z,8.03
2022-11-08T20:12:45.708Z,6.30
2022-11-08T20:15:32.057Z,5.97
2022-11-08T20:18:18.879Z,3.53
2022-11-08T20:21:07.404Z,5.47
2022-11-08T20:23:53.594Z,3.70
2022-11-08T20:26:41.245Z,3.47
2022-11-08T20:29:27.792Z,4.40
2022-11-08T20:32:14.155Z,5.00
2022-11-08T20:35:00.861Z,4.67
2022-11-08T20:37:47.132Z,5.23
2022-11-08T20:40:33.441Z,5.17
2022-11-08T20:43:21.756Z,7.13
2022-11-08T20:46:13.872Z,3.23
2022-11-08T20:49:01.439Z,3.77
2022-11-08T20:51:48.057Z,3.37
2022-11-08T20:54:34.203Z,4.33
2022-11-08T20:57:20.732Z,2.60
2022-11-08T21:00:15.939Z,2.80
2022-11-08T21:03:04.083Z,2.90
2022-11-08T21:06:14.253Z,6.37
2022-11-08T21:09:05.873Z,2.40
2022-11-08T21:12:03.347Z,2.97
2022-11-08T21:14:49.524Z,4.67
2022-11-08T21:17:36.077Z,2.73
2022-11-08T21:20:22.430Z,5.00
2022-11-08T21:23:08.977Z,3.47
2022-11-08T21:25:55.201Z,3.70
2022-11-08T21:28:42.040Z,2.60
2022-11-08T21:31:29.026Z,2.90
2022-11-08T21:34:15.298Z,2.60
2022-11-08T21:37:01.756Z,4.17
2022-11-08T21:39:48.026Z,4.37
2022-11-08T21:42:39.081Z,3.30
2022-11-08T21:45:26.473Z,2.63
2022-11-08T21:48:15.410Z,2.50
2022-11-08T21:51:05.201Z,5.53
2022-11-08T21:53:55.092Z,3.80
2022-11-08T21:56:41.674Z,5.47
2022-11-08T21:59:27.828Z,5.17
2022-11-08T22:02:15.693Z,3.97
2022-11-08T22:05:02.022Z,5.80
2022-11-08T22:07:48.073Z,3.10
2022-11-08T22:10:36.945Z,4.13
2022-11-08T22:13:23.670Z,4.00
2022-11-08T22:16:09.840Z,3.93
2022-11-08T22:19:05.544Z,5.27
2022-11-08T22:21:52.240Z,21.43
2022-11-08T22:24:39.400Z,5.70
2022-11-08T22:27:25.788Z,9.00
2022-11-08T22:30:16.541Z,5.77
2022-11-08T22:33:03.293Z,7.03
2022-11-08T22:35:49.657Z,7.33
2022-11-08T22:38:36.147Z,9.57
2022-11-08T22:41:23.235Z,5.43
2022-11-08T22:44:12.371Z,6.50
2022-11-08T22:46:58.827Z,7.53
2022-11-08T22:49:45.330Z,5.30
2022-11-08T22:52:31.880Z,5.60
2022-11-08T22:55:18.192Z,5.80
2022-11-08T22:58:04.589Z,6.70
2022-11-08T23:00:51.015Z,6.43
2022-11-08T23:03:37.253Z,7.83
2022-11-08T23:06:23.557Z,6.00
2022-11-08T23:09:10.008Z,6.20
2022-11-08T23:12:14.951Z,10.50
2022-11-08T23:15:19.836Z,6.60
2022-11-08T23:18:05.990Z,5.20
2022-11-08T23:21:13.389Z,7.53
2022-11-08T23:24:18.402Z,8.10
2022-11-08T23:27:25.340Z,6.33
2022-11-08T23:30:35.039Z,6.63
2022-11-08T23:33:21.805Z,7.03
2022-11-08T23:36:11.448Z,9.40
2022-11-08T23:38:58.122Z,6.83
2022-11-08T23:42:03.061Z,6.40
2022-11-08T23:44:49.246Z,6.40
2022-11-08T23:47:35.464Z,5.80
2022-11-08T23:50:21.800Z,9.10
2022-11-08T23:53:08.077Z,9.23
2022-11-08T23:55:54.765Z,7.67
2022-11-08T23:58:40.922Z,7.57
